Terminal Aerodrome Forecast
Issued by NWS Cleveland, OH

Home | Current Version | Previous Version | Text Only | Print | Product List | Glossary On
Versions: 1 2 3 4 5 6 7 8 9 10 11 12 13 14 15 16 17 18 19 20 21 22
421
FTUS41 KCLE 050530
TAFERI
TAF
KERI 050530Z 0506/0606 19008KT P6SM -RA SCT015 OVC035
     FM050730 23010G18KT 6SM -RASN OVC015
     FM050900 25010G18KT P6SM OVC007
     FM051200 26010G18KT P6SM OVC015
     FM051400 26010KT P6SM OVC025
     FM051900 26008KT P6SM OVC035=

USA.gov is the U.S. government's official web portal to all federal, state and local government web resources and services.